LA HONDA (LAH)

Elevation: 425' · SAN GREGORIO CR basin · Operator: CAL FIRE

Query executed Tuesday at 19:15:01   clock

Provisional data, subject to change.
Select a sensor type for a plot of data.

Earlier

Date   /   Time   RAIN     TEMP     REL HUM     FUEL MS     FUEL TP     WIND SP     WIND DR     PEAK WS     PEAK WD     SOLAR R     BAT VOL    
(PDT)INCHES   DEG F   %   %   DEG F   MPH   DEG   MPH   DEG   W/M^2   VOLTS  
08/03/2015 19:00 0.18 65 59 7 64 5 237 12 233 62.00 13.5
08/03/2015 20:00 0.18 63 65 7 61 3 244 9 244 47.00 13.3
08/03/2015 21:00 0.18 59 74 8 56 1 67 5 242 3.00 13.1
08/03/2015 22:00 0.18 56 80 9 54 3 66 4 64 0.00 13.0
08/03/2015 23:00 0.18 54 84 10 53 5 78 5 84 0.00 12.9
08/04/2015 00:00 0.18 53 87 10 51 3 89 6 83 0.00 12.8
08/04/2015 01:00 0.18 52 89 12 50 4 82 6 77 0.00 12.8
08/04/2015 02:00 0.18 52 90 14 50 4 85 6 83 0.00 12.8
08/04/2015 03:00 0.18 53 90 15 52 4 88 6 82 0.00 12.7
08/04/2015 04:00 0.18 54 88 17 54 3 77 5 78 0.00 12.7
08/04/2015 05:00 0.18 53 90 18 51 4 71 5 72 0.00 12.7
08/04/2015 06:00 0.18 54 92 19 53 4 59 6 68 0.00 12.7
08/04/2015 07:00 0.18 55 90 19 54 4 78 5 67 10.00 12.7
08/04/2015 08:00 0.18 59 84 19 60 1 43 5 78 86.00 12.9
08/04/2015 09:00 0.18 63 77 17 67 4 235 7 211 173.00 13.7
08/04/2015 10:00 0.18 63 73 15 67 4 199 9 210 162.00 13.8
08/04/2015 11:00 0.18 67 60 13 73 3 257 8 240 271.00 13.7
08/04/2015 12:00 0.18 69 53 12 78 3 251 7 220 407.00 13.7
08/04/2015 13:00 0.18 72 48 10 85 3 8 14 9 687.00 13.6
08/04/2015 14:00 0.18 72 48 9 85 4 281 9 322 592.00 14.3
08/04/2015 15:00 0.18 73 52 8 87 5 249 12 249 580.00 13.5
08/04/2015 16:00 0.18 75 46 8 87 4 264 11 228 804.00 13.5
08/04/2015 17:00 0.18 74 46 8 85 4 264 11 216 635.00 13.5
08/04/2015 18:00 0.18 72 49 7 78 4 249 10 213 451.00 13.8
08/04/2015 19:00 0.18 67 59 8 67 3 244 11 230 93.00 13.6

Later | Latest

Warning! This data is preliminary and subject to revision.

Show LAH Map | 24 Hours LAH Data | Plot all LAH Sensors | Daily LAH Data | LAH Info